Flight Track Log - Related Links

Times and Time Zones

All times are in EDT time to prevent confusion due to time zone crossing. See the N1944E flight status page for this flight to view local times or setup timezone preferences in your user account.


Time Position Orientation Groundspeed Altitude Reporting Facility
EDT Latitude Longitude Course Direction KTS MPH feet Rate Location/Type
Fri 07:28:58 AM 44.5764 -108.9775 12° North 138 159 8,200  Level Salt Lake Center
Fri 07:29:58 AM 44.6158 -108.9675 10° North 141 162 9,000 793 Climbing Salt Lake Center
Fri 07:30:59 AM 44.6572 -108.9519 15° North 146 168 9,800 694 Climbing Salt Lake Center
Fri 07:31:59 AM 44.7022 -108.9372 13° North 154 177 10,400 750 Climbing Salt Lake Center
Fri 07:32:59 AM 44.7475 -108.9189 16° North 162 186 11,300 850 Climbing Salt Lake Center
Fri 07:33:59 AM 44.7922 -108.9047 13° North 164 189 12,100 744 Climbing Salt Lake Center
Fri 07:34:00 AM 44.7452 -108.9315 12° North  Level FlightAware Approximate
Fri 07:35:00 AM 44.8378 -108.8883 14° North 166 191 12,800  Level Salt Lake Center
Fri 07:36:00 AM 44.8858 -108.8708 14° North 172 198 13,100 150 Climbing Salt Lake Center
Fri 07:37:00 AM 44.9406 -108.8525 13° North 187 215 13,100  Level Salt Lake Center
Fri 07:38:00 AM 44.9961 -108.8325 14° North 197 227 13,100  Level Salt Lake Center
Fri 07:39:00 AM 45.0503 -108.8128 14° North 200 230 13,100 -50 Level Salt Lake Center
Fri 07:40:01 AM 45.1103 -108.7875 17° North 198 228 13,000 -347 Descending Salt Lake Center
Fri 07:41:01 AM 45.1650 -108.7664 15° North 205 236 12,400 -500 Descending Salt Lake Center
Fri 07:42:01 AM 45.2228 -108.7436 16° North 218 251 12,000 -200 Descending Salt Lake Center
Fri 07:43:01 AM 45.2775 -108.7247 14° North 204 235 12,000  Level Salt Lake Center
Fri 07:44:02 AM 45.3297 -108.7058 14° North 198 228 12,000 -248 Level Salt Lake Center
Fri 07:45:02 AM 45.3878 -108.6875 13° North 198 228 11,500 -800 Descending Salt Lake Center
Fri 07:46:02 AM 45.4472 -108.6744 North 216 249 10,400 -1,140 Descending Salt Lake Center
Fri 07:47:03 AM 45.5061 -108.6500 16° North 223 257 9,200 -1,240 Descending Salt Lake Center
Fri 07:48:03 AM 45.5650 -108.6283 14° North 220 253 7,900 -1,150 Descending Salt Lake Center
Fri 07:49:03 AM 45.6197 -108.6089 14° North 208 239 6,900 -900 Descending Salt Lake Center
Fri 07:50:03 AM 45.6717 -108.5886 15° North 198 228 6,100 -942 Descending Salt Lake Center
Fri 07:51:04 AM 45.7203 -108.5483 30° Northeast 192 221 5,000 -793 Descending Salt Lake Center
Fri 07:52:04 AM 45.7625 -108.5128 30° Northeast 177 204 4,500 -550 Descending Salt Lake Center
Fri 07:53:04 AM 45.7944 -108.4936 23° Northeast 137 158 3,900 -600 Descending Salt Lake Center
Fri 07:55:00 AM 45.8000 -108.5333 19° North  Level FlightAware Approximate

Login

Don't have an account? Register now (free) for customized features, flight alerts, and more!